Hope, ME (04847)

3:03 PM EDT on September 19, 2017 (GMT -0400)
Hope, Maine: Church Street Apple Orchard | | Change Station
Active Advisory: High Surf Advisory Active Notice: High Surf Advisory

Elev 420 ft 44.27 °N, 69.15 °W | Updated 53 seconds ago

Overcast
Overcast
64.5 °F
Feels Like 64.5 °F
N
3.0
Wind Variable Wind from ENE
Gusts 3.0 mph

Today
High -- | Low -- °F
--% Chance of Precip.
Yesterday
High -- | Low -- °F
Precip. -- in
Pressure 30.14 in
Visibility 10.0 miles
Clouds Overcast 100 ft
Dew Point 64 °F
Humidity 100%
Rainfall 0.00 in
Snow Depth Not available.
6:20 AM 6:39 PM
Waning Crescent, 0% visible
METAR KRKD 191856Z AUTO VRB05KT 10SM -RA OVC001 18/18 A3013 RMK AO2 RAE23B43 SLP204 P0002 T01780178
Pressure 30.14 in
Visibility 10.0 miles
Clouds Overcast 100 ft
Dew Point 64 °F
Humidity 100%
Rainfall 0.00 in
Snow Depth Not available.
6:20 AM 6:39 PM
Waning Crescent, 0% visible
METAR KRKD 191856Z AUTO VRB05KT 10SM -RA OVC001 18/18 A3013 RMK AO2 RAE23B43 SLP204 P0002 T01780178

Get Your Daily Forecast Email!

Thanks for signing up!

Be on the lookout for a verification email in your inbox.

You'll start receiving severe weather alerts in your inbox..

×

10-Day Weather Forecast

Almanac

Astronomy

Sep. 19, 2017 Rise Set
Actual Time
Civil Twilight
Nautical Twilight
Astronomical Twilight
Moon
Length of Visible Light
Length of Day
Tomorrow will be .
, % of the Moon is Illuminated

Today's Extremes

State Highs State Lows

Community

WunderPhotos

Category 6

Welcome to Category 6. This is the collective home for Weather Underground's featured writeups by Dr. Jeff Masters (right), Bob Henson (left), Chris Burt, and other regular contributors.

Nearby

Air Quality

  Air Quality AQ Index Pollutant
Not available.

Snow Depth

Station Depth Elevation

Earthquake Activity

City Distance Mag. Time & Date
Minimum magnitude displayed is 2.5.

Coastal Water Temperatures

Place Temperature

Stations

Nearby Weather Stations

Station Location Temp. Windchill Dew Point Humidity Wind Precip. Elev Updated Type
                   

Watches & Warnings

High Surf Advisory
Issued: 2:55 PM EDT Sep. 19, 2017 – National Weather Service

... High surf advisory remains in effect until 8 PM EDT
Wednesday...

* location... the southwest and midcoast of Maine and seacoast of
New Hampshire.

* Surf height... building to 5 to 10 feet.

* Timing... through Wednesday.

* Impacts... dangerous rip currents will develop.

Precautionary/preparedness actions...

A high surf advisory means that high surf will affect beaches in
the advisory area... producing localized beach erosion and
dangerous swimming conditions.